Fairview, Oregon
Current Conditions -  °F | °C
As of 11:53 AM on Saturday 25 Oct 2014 (Local Time) from KTTD Reporting Station
Light Rain Light Rain  
Wind Chill: 60°   Ceiling: 8000
Heat Index: 60°   Visibility: 10mi
Dew Point: 48°   Wind: 20mph
Humidity: 64%   Direction: 100°E
Pressure: 29.42"   Gusts: 31mph
Location:  45.54°N, 122.43°W
Report Text: KTTD 251853Z 10017G27KT 10SM -RA OVC080 16/09 A2942 RMK AO2 PK WND 09032/1805 RAB48 SLP963 P0000 T01560089
Loading
Personal Weather Stations






























Interactive Weather Map
Tropical Storm Tracking
New forecast layout! Learn more

10-Day Weather Forecast

Advertisements
Track Severe Weather on mobile